Burns Flat, Oklahoma
Current Conditions -  °F | °C
As of 11:02 PM on Saturday 20 Dec 2014 (Local Time) from KCSM Reporting Station
Haze Haze  
Wind Chill: 33°   Ceiling: 200
Heat Index: 40°   Visibility: 4mi
Dew Point: 38°   Wind: 13mph
Humidity: 93%   Direction: 160°SSE
Pressure: 30.09"   Gusts: NA
Location:  35.35°N, 99.17°W
Report Text: KCSM 210502Z AUTO 16011KT 4SM BR OVC002 04/03 A3009 RMK AO2 T00440033
Loading
Personal Weather Stations






























Interactive Weather Map New forecast layout! Learn more

10-Day Weather Forecast

Advertisements
Track Severe Weather on mobile